Inicio METAR Ruta Wind Satelite

Informe Meteorológico

Fecha: 2024/06/18 20:55:50 Local
2024.06.19 01:55 UTC


Operación:VFR
SKSM 190100Z 10003KT 030V130 9999 SCT018 BKN080 28/23 Q1010 =

SKSM 190000Z 15005KT 070V170 9000 SCT018 BKN065 28/23 Q1009 REDZ
SKSM 182314Z 20008KT 9000 DZ SCT018CB 28/24 Q1009 RMK CB/SW
SKSM 182300Z 21024KT 9999 VCSH FEW020CB BKN065 28/25 Q1009 RMK CB/SW
SKSM 182200Z 01009KT 9999 FEW020 33/26 Q1007
SKSM 182100Z 01004KT 9999 FEW018CB 33/24 Q1007 RMK CB/S/SW